sensor_id;sensor_type;location;lat;lon;timestamp;pressure;altitude;pressure_sealevel;temperature;humidity
4598;BME280;62772;48.646;8.906;2024-03-23T00:52:30;95591.50;;;7.67;100.00
4598;BME280;62772;48.646;8.906;2024-03-23T00:57:31;95592.69;;;7.43;100.00
4598;BME280;62772;48.646;8.906;2024-03-23T01:02:32;95573.38;;;7.20;100.00
4598;BME280;62772;48.646;8.906;2024-03-23T01:07:33;95558.16;;;7.43;100.00
4598;BME280;62772;48.646;8.906;2024-03-23T01:12:33;95562.50;;;7.30;100.00
4598;BME280;62772;48.646;8.906;2024-03-23T01:17:34;95565.56;;;7.23;100.00
4598;BME280;62772;48.646;8.906;2024-03-23T01:22:34;95566.47;;;7.19;100.00
4598;BME280;62772;48.646;8.906;2024-03-23T01:27:35;95554.53;;;7.39;100.00
4598;BME280;62772;48.646;8.906;2024-03-23T01:32:35;95551.63;;;7.67;100.00
4598;BME280;62772;48.646;8.906;2024-03-23T01:37:36;95546.00;;;7.68;100.00
4598;BME280;62772;48.646;8.906;2024-03-23T01:42:36;95537.59;;;7.84;100.00
4598;BME280;62772;48.646;8.906;2024-03-23T01:47:36;95521.53;;;7.97;100.00
4598;BME280;62772;48.646;8.906;2024-03-23T01:52:37;95514.94;;;8.12;100.00
4598;BME280;62772;48.646;8.906;2024-03-23T01:57:37;95502.28;;;8.01;100.00
4598;BME280;62772;48.646;8.906;2024-03-23T02:02:45;95512.00;;;8.05;100.00
4598;BME280;62772;48.646;8.906;2024-03-23T02:07:45;95486.03;;;7.85;100.00
4598;BME280;62772;48.646;8.906;2024-03-23T02:12:46;95483.19;;;7.90;100.00
4598;BME280;62772;48.646;8.906;2024-03-23T02:17:47;95482.88;;;7.82;100.00
4598;BME280;62772;48.646;8.906;2024-03-23T02:22:52;95474.56;;;7.67;100.00
4598;BME280;62772;48.646;8.906;2024-03-23T02:27:53;95475.19;;;7.46;100.00
4598;BME280;62772;48.646;8.906;2024-03-23T02:32:54;95467.03;;;7.34;100.00
4598;BME280;62772;48.646;8.906;2024-03-23T02:37:54;95472.03;;;7.35;100.00
4598;BME280;62772;48.646;8.906;2024-03-23T02:42:56;95473.53;;;7.10;100.00
4598;BME280;62772;48.646;8.906;2024-03-23T02:47:57;95462.00;;;6.75;100.00
4598;BME280;62772;48.646;8.906;2024-03-23T02:52:57;95444.53;;;7.40;100.00
4598;BME280;62772;48.646;8.906;2024-03-23T02:57:57;95443.44;;;6.83;100.00
4598;BME280;62772;48.646;8.906;2024-03-23T03:03:01;95450.78;;;6.86;100.00
4598;BME280;62772;48.646;8.906;2024-03-23T03:08:03;95432.13;;;7.00;100.00
4598;BME280;62772;48.646;8.906;2024-03-23T03:13:04;95436.41;;;7.36;100.00
4598;BME280;62772;48.646;8.906;2024-03-23T03:18:05;95431.09;;;7.45;100.00
4598;BME280;62772;48.646;8.906;2024-03-23T03:23:06;95420.63;;;7.31;100.00
4598;BME280;62772;48.646;8.906;2024-03-23T03:28:06;95419.53;;;7.41;100.00
4598;BME280;62772;48.646;8.906;2024-03-23T03:33:07;95400.63;;;7.34;100.00
4598;BME280;62772;48.646;8.906;2024-03-23T03:38:07;95390.00;;;7.34;100.00
4598;BME280;62772;48.646;8.906;2024-03-23T03:43:08;95377.66;;;7.47;100.00
4598;BME280;62772;48.646;8.906;2024-03-23T03:48:08;95377.34;;;7.39;100.00
4598;BME280;62772;48.646;8.906;2024-03-23T03:53:09;95357.81;;;7.44;100.00
4598;BME280;62772;48.646;8.906;2024-03-23T03:58:09;95348.59;;;7.41;100.00
4598;BME280;62772;48.646;8.906;2024-03-23T04:03:10;95343.91;;;7.30;100.00
4598;BME280;62772;48.646;8.906;2024-03-23T04:08:10;95327.50;;;7.45;100.00
4598;BME280;62772;48.646;8.906;2024-03-23T04:13:12;95321.72;;;7.25;100.00
4598;BME280;62772;48.646;8.906;2024-03-23T04:18:12;95325.44;;;7.16;100.00
4598;BME280;62772;48.646;8.906;2024-03-23T04:23:13;95308.38;;;6.64;100.00
4598;BME280;62772;48.646;8.906;2024-03-23T04:28:13;95303.69;;;6.61;100.00
4598;BME280;62772;48.646;8.906;2024-03-23T04:33:14;95292.41;;;6.47;100.00
4598;BME280;62772;48.646;8.906;2024-03-23T04:38:14;95293.16;;;6.39;100.00
4598;BME280;62772;48.646;8.906;2024-03-23T04:43:14;95306.53;;;6.74;100.00
4598;BME280;62772;48.646;8.906;2024-03-23T04:48:15;95356.50;;;6.89;100.00
4598;BME280;62772;48.646;8.906;2024-03-23T04:53:15;95369.69;;;7.38;100.00
4598;BME280;62772;48.646;8.906;2024-03-23T04:58:16;95347.50;;;7.42;100.00
4598;BME280;62772;48.646;8.906;2024-03-23T05:03:16;95345.31;;;7.53;100.00
4598;BME280;62772;48.646;8.906;2024-03-23T05:08:17;95352.50;;;7.61;100.00
4598;BME280;62772;48.646;8.906;2024-03-23T05:13:17;95355.31;;;7.56;100.00
4598;BME280;62772;48.646;8.906;2024-03-23T05:18:18;95362.19;;;7.49;100.00
4598;BME280;62772;48.646;8.906;2024-03-23T05:23:18;95374.22;;;7.37;100.00
4598;BME280;62772;48.646;8.906;2024-03-23T05:28:19;95375.00;;;7.29;100.00
4598;BME280;62772;48.646;8.906;2024-03-23T05:33:20;95398.75;;;7.25;100.00
4598;BME280;62772;48.646;8.906;2024-03-23T05:38:20;95407.31;;;7.14;100.00
4598;BME280;62772;48.646;8.906;2024-03-23T05:43:22;95423.38;;;7.17;100.00
4598;BME280;62772;48.646;8.906;2024-03-23T05:48:22;95436.34;;;7.10;100.00
4598;BME280;62772;48.646;8.906;2024-03-23T05:53:24;95424.63;;;7.02;100.00
4598;BME280;62772;48.646;8.906;2024-03-23T05:58:24;95439.72;;;6.93;100.00
4598;BME280;62772;48.646;8.906;2024-03-23T06:03:25;95453.25;;;6.74;100.00
4598;BME280;62772;48.646;8.906;2024-03-23T06:08:26;95466.72;;;6.55;100.00
4598;BME280;62772;48.646;8.906;2024-03-23T06:13:26;95462.59;;;6.40;100.00
4598;BME280;62772;48.646;8.906;2024-03-23T06:18:30;95478.28;;;6.28;100.00
4598;BME280;62772;48.646;8.906;2024-03-23T06:23:30;95484.47;;;6.23;100.00
4598;BME280;62772;48.646;8.906;2024-03-23T06:28:30;95495.88;;;6.24;100.00
4598;BME280;62772;48.646;8.906;2024-03-23T06:33:31;95522.31;;;6.38;100.00
4598;BME280;62772;48.646;8.906;2024-03-23T06:38:31;95525.22;;;6.50;100.00
4598;BME280;62772;48.646;8.906;2024-03-23T06:43:32;95543.63;;;6.24;100.00
4598;BME280;62772;48.646;8.906;2024-03-23T06:48:32;95546.91;;;6.07;100.00
4598;BME280;62772;48.646;8.906;2024-03-23T06:53:33;95562.03;;;6.06;100.00
4598;BME280;62772;48.646;8.906;2024-03-23T06:58:33;95587.72;;;6.06;100.00
4598;BME280;62772;48.646;8.906;2024-03-23T07:03:34;95586.34;;;5.94;100.00
4598;BME280;62772;48.646;8.906;2024-03-23T07:08:34;95594.53;;;5.98;100.00
4598;BME280;62772;48.646;8.906;2024-03-23T07:13:35;95608.88;;;5.97;100.00
4598;BME280;62772;48.646;8.906;2024-03-23T07:18:35;95601.47;;;5.94;100.00
4598;BME280;62772;48.646;8.906;2024-03-23T07:23:36;95627.88;;;5.85;100.00
4598;BME280;62772;48.646;8.906;2024-03-23T07:28:36;95623.16;;;5.82;100.00
4598;BME280;62772;48.646;8.906;2024-03-23T07:33:42;95645.47;;;5.67;100.00
4598;BME280;62772;48.646;8.906;2024-03-23T07:38:43;95636.22;;;5.64;100.00
4598;BME280;62772;48.646;8.906;2024-03-23T07:43:48;95652.13;;;5.64;100.00
4598;BME280;62772;48.646;8.906;2024-03-23T07:48:49;95663.41;;;5.70;100.00
4598;BME280;62772;48.646;8.906;2024-03-23T07:53:49;95674.50;;;5.72;100.00
4598;BME280;62772;48.646;8.906;2024-03-23T07:58:51;95687.88;;;5.81;100.00
4598;BME280;62772;48.646;8.906;2024-03-23T08:03:51;95688.88;;;5.99;100.00
4598;BME280;62772;48.646;8.906;2024-03-23T08:08:54;95694.13;;;5.85;100.00
4598;BME280;62772;48.646;8.906;2024-03-23T08:14:00;95738.88;;;5.87;100.00
4598;BME280;62772;48.646;8.906;2024-03-23T08:19:02;95749.97;;;5.75;100.00
4598;BME280;62772;48.646;8.906;2024-03-23T08:24:04;95763.84;;;5.86;100.00
4598;BME280;62772;48.646;8.906;2024-03-23T08:29:05;95782.25;;;5.77;100.00
4598;BME280;62772;48.646;8.906;2024-03-23T08:34:06;95795.13;;;5.70;100.00
4598;BME280;62772;48.646;8.906;2024-03-23T08:39:06;95794.41;;;5.64;100.00
4598;BME280;62772;48.646;8.906;2024-03-23T08:44:06;95801.19;;;5.70;100.00
4598;BME280;62772;48.646;8.906;2024-03-23T08:49:07;95791.47;;;5.66;100.00
4598;BME280;62772;48.646;8.906;2024-03-23T08:54:07;95803.16;;;5.78;100.00
4598;BME280;62772;48.646;8.906;2024-03-23T08:59:08;95832.22;;;5.84;100.00
4598;BME280;62772;48.646;8.906;2024-03-23T09:04:08;95832.69;;;5.72;100.00
4598;BME280;62772;48.646;8.906;2024-03-23T09:09:09;95861.66;;;5.82;100.00
4598;BME280;62772;48.646;8.906;2024-03-23T09:14:09;95869.56;;;5.87;100.00
4598;BME280;62772;48.646;8.906;2024-03-23T09:19:10;95855.28;;;6.02;100.00
4598;BME280;62772;48.646;8.906;2024-03-23T09:24:10;95858.06;;;6.11;100.00
4598;BME280;62772;48.646;8.906;2024-03-23T09:29:11;95873.16;;;6.10;100.00
4598;BME280;62772;48.646;8.906;2024-03-23T09:34:11;95884.97;;;6.18;100.00
4598;BME280;62772;48.646;8.906;2024-03-23T09:39:11;95885.56;;;5.96;100.00
4598;BME280;62772;48.646;8.906;2024-03-23T09:44:14;95870.47;;;5.96;100.00
4598;BME280;62772;48.646;8.906;2024-03-23T09:49:15;95878.94;;;5.98;100.00
4598;BME280;62772;48.646;8.906;2024-03-23T09:54:15;95888.97;;;6.02;100.00
4598;BME280;62772;48.646;8.906;2024-03-23T09:59:16;95884.38;;;6.21;100.00
4598;BME280;62772;48.646;8.906;2024-03-23T10:04:40;95860.72;;;6.39;100.00
4598;BME280;62772;48.646;8.906;2024-03-23T10:09:41;95846.97;;;6.50;100.00
4598;BME280;62772;48.646;8.906;2024-03-23T10:14:41;95848.88;;;6.64;100.00
4598;BME280;62772;48.646;8.906;2024-03-23T10:19:45;95850.72;;;6.35;100.00
4598;BME280;62772;48.646;8.906;2024-03-23T10:24:46;95852.75;;;6.25;100.00
4598;BME280;62772;48.646;8.906;2024-03-23T10:29:50;95847.97;;;6.68;100.00
4598;BME280;62772;48.646;8.906;2024-03-23T10:34:50;95873.00;;;6.34;100.00
4598;BME280;62772;48.646;8.906;2024-03-23T10:39:51;95929.97;;;4.07;100.00
4598;BME280;62772;48.646;8.906;2024-03-23T10:44:51;95933.56;;;3.42;100.00
4598;BME280;62772;48.646;8.906;2024-03-23T10:49:53;95921.69;;;3.40;100.00
4598;BME280;62772;48.646;8.906;2024-03-23T10:54:55;95934.97;;;3.30;100.00
4598;BME280;62772;48.646;8.906;2024-03-23T10:59:56;95925.03;;;3.56;100.00
4598;BME280;62772;48.646;8.906;2024-03-23T11:04:57;95906.56;;;3.90;100.00
4598;BME280;62772;48.646;8.906;2024-03-23T11:09:59;95898.53;;;4.06;100.00
4598;BME280;62772;48.646;8.906;2024-03-23T11:15:04;95900.16;;;4.55;100.00
4598;BME280;62772;48.646;8.906;2024-03-23T11:20:06;95914.63;;;4.87;100.00
4598;BME280;62772;48.646;8.906;2024-03-23T11:25:20;95897.13;;;5.10;100.00
4598;BME280;62772;48.646;8.906;2024-03-23T11:30:26;95895.53;;;4.90;100.00
4598;BME280;62772;48.646;8.906;2024-03-23T11:40:27;95894.94;;;5.17;100.00
4598;BME280;62772;48.646;8.906;2024-03-23T11:45:27;95909.47;;;5.39;100.00
4598;BME280;62772;48.646;8.906;2024-03-23T11:50:29;95898.38;;;5.18;100.00
4598;BME280;62772;48.646;8.906;2024-03-23T11:55:29;95892.09;;;5.85;100.00
4598;BME280;62772;48.646;8.906;2024-03-23T12:00:30;95877.09;;;6.13;100.00
4598;BME280;62772;48.646;8.906;2024-03-23T12:05:33;95881.91;;;6.11;100.00
4598;BME280;62772;48.646;8.906;2024-03-23T12:10:34;95889.84;;;5.78;100.00
4598;BME280;62772;48.646;8.906;2024-03-23T12:15:34;95885.31;;;5.97;100.00
4598;BME280;62772;48.646;8.906;2024-03-23T12:20:35;95874.00;;;5.92;100.00
4598;BME280;62772;48.646;8.906;2024-03-23T12:25:35;95880.16;;;5.87;100.00
4598;BME280;62772;48.646;8.906;2024-03-23T12:30:39;95862.06;;;6.08;100.00
4598;BME280;62772;48.646;8.906;2024-03-23T12:35:40;95883.91;;;6.19;100.00
4598;BME280;62772;48.646;8.906;2024-03-23T12:40:40;95882.31;;;6.18;100.00
4598;BME280;62772;48.646;8.906;2024-03-23T12:45:48;95882.72;;;6.25;100.00
4598;BME280;62772;48.646;8.906;2024-03-23T12:50:54;95876.47;;;6.35;100.00
4598;BME280;62772;48.646;8.906;2024-03-23T12:55:55;95873.00;;;6.34;100.00
4598;BME280;62772;48.646;8.906;2024-03-23T13:00:58;95891.19;;;6.27;100.00
4598;BME280;62772;48.646;8.906;2024-03-23T13:05:58;95887.97;;;5.59;100.00
4598;BME280;62772;48.646;8.906;2024-03-23T13:10:59;95915.34;;;4.15;100.00
4598;BME280;62772;48.646;8.906;2024-03-23T13:15:59;95904.22;;;3.89;100.00
4598;BME280;62772;48.646;8.906;2024-03-23T13:21:00;95854.91;;;4.32;100.00
4598;BME280;62772;48.646;8.906;2024-03-23T13:26:00;95844.72;;;4.69;100.00
4598;BME280;62772;48.646;8.906;2024-03-23T13:31:01;95832.91;;;5.23;100.00
4598;BME280;62772;48.646;8.906;2024-03-23T13:36:04;95823.44;;;5.69;100.00
4598;BME280;62772;48.646;8.906;2024-03-23T13:41:04;95826.69;;;5.99;100.00
4598;BME280;62772;48.646;8.906;2024-03-23T13:46:07;95824.59;;;6.29;100.00
4598;BME280;62772;48.646;8.906;2024-03-23T13:51:08;95832.75;;;6.46;100.00
4598;BME280;62772;48.646;8.906;2024-03-23T13:56:08;95841.84;;;6.26;100.00
4598;BME280;62772;48.646;8.906;2024-03-23T14:01:09;95855.91;;;5.42;100.00
4598;BME280;62772;48.646;8.906;2024-03-23T14:06:10;95844.69;;;5.31;100.00
4598;BME280;62772;48.646;8.906;2024-03-23T14:11:11;95822.00;;;5.77;100.00
4598;BME280;62772;48.646;8.906;2024-03-23T14:16:11;95817.09;;;6.17;100.00
4598;BME280;62772;48.646;8.906;2024-03-23T14:21:12;95812.97;;;5.97;100.00
4598;BME280;62772;48.646;8.906;2024-03-23T14:26:12;95808.94;;;6.13;100.00
4598;BME280;62772;48.646;8.906;2024-03-23T14:31:13;95805.13;;;5.73;100.00
4598;BME280;62772;48.646;8.906;2024-03-23T14:36:14;95805.41;;;5.38;100.00
4598;BME280;62772;48.646;8.906;2024-03-23T14:41:14;95819.00;;;5.32;100.00
4598;BME280;62772;48.646;8.906;2024-03-23T14:46:16;95833.03;;;5.13;100.00
4598;BME280;62772;48.646;8.906;2024-03-23T14:51:17;95840.47;;;4.49;100.00
4598;BME280;62772;48.646;8.906;2024-03-23T14:56:17;95848.78;;;4.37;100.00
4598;BME280;62772;48.646;8.906;2024-03-23T15:01:18;95841.09;;;4.41;100.00
4598;BME280;62772;48.646;8.906;2024-03-23T15:06:19;95832.56;;;4.44;100.00
4598;BME280;62772;48.646;8.906;2024-03-23T15:11:20;95810.53;;;4.53;100.00
4598;BME280;62772;48.646;8.906;2024-03-23T15:16:20;95799.63;;;4.79;100.00
4598;BME280;62772;48.646;8.906;2024-03-23T15:21:21;95800.78;;;4.92;100.00
4598;BME280;62772;48.646;8.906;2024-03-23T15:26:21;95803.06;;;5.18;100.00
4598;BME280;62772;48.646;8.906;2024-03-23T15:31:22;95810.28;;;5.12;100.00
4598;BME280;62772;48.646;8.906;2024-03-23T15:36:23;95804.50;;;5.10;100.00
4598;BME280;62772;48.646;8.906;2024-03-23T15:41:23;95821.31;;;5.19;100.00
4598;BME280;62772;48.646;8.906;2024-03-23T15:46:24;95825.88;;;4.95;100.00
4598;BME280;62772;48.646;8.906;2024-03-23T15:51:25;95838.78;;;4.77;100.00
4598;BME280;62772;48.646;8.906;2024-03-23T15:56:31;95792.41;;;4.42;100.00
4598;BME280;62772;48.646;8.906;2024-03-23T16:01:35;95793.38;;;4.51;100.00
4598;BME280;62772;48.646;8.906;2024-03-23T16:06:35;95787.91;;;4.66;100.00
4598;BME280;62772;48.646;8.906;2024-03-23T16:11:35;95777.81;;;4.68;100.00
4598;BME280;62772;48.646;8.906;2024-03-23T16:16:36;95769.72;;;4.79;100.00
4598;BME280;62772;48.646;8.906;2024-03-23T16:21:36;95774.84;;;4.51;100.00
4598;BME280;62772;48.646;8.906;2024-03-23T16:26:37;95770.50;;;4.60;100.00
4598;BME280;62772;48.646;8.906;2024-03-23T16:31:37;95766.78;;;4.61;100.00
4598;BME280;62772;48.646;8.906;2024-03-23T16:36:38;95762.78;;;4.64;100.00
4598;BME280;62772;48.646;8.906;2024-03-23T16:41:38;95764.97;;;4.38;100.00
4598;BME280;62772;48.646;8.906;2024-03-23T16:46:38;95763.00;;;4.67;100.00
4598;BME280;62772;48.646;8.906;2024-03-23T16:51:40;95775.13;;;4.49;100.00
4598;BME280;62772;48.646;8.906;2024-03-23T16:56:40;95774.19;;;4.40;100.00
4598;BME280;62772;48.646;8.906;2024-03-23T17:01:41;95759.34;;;4.44;100.00
4598;BME280;62772;48.646;8.906;2024-03-23T17:06:41;95761.94;;;4.25;100.00
4598;BME280;62772;48.646;8.906;2024-03-23T17:11:43;95768.44;;;4.57;100.00
4598;BME280;62772;48.646;8.906;2024-03-23T17:16:43;95777.19;;;4.33;100.00
4598;BME280;62772;48.646;8.906;2024-03-23T17:21:45;95778.84;;;4.48;100.00
4598;BME280;62772;48.646;8.906;2024-03-23T17:26:45;95804.47;;;4.29;100.00
4598;BME280;62772;48.646;8.906;2024-03-23T17:31:46;95867.22;;;3.89;100.00
4598;BME280;62772;48.646;8.906;2024-03-23T17:36:47;95852.91;;;2.76;100.00
4598;BME280;62772;48.646;8.906;2024-03-23T17:41:47;95863.00;;;2.53;100.00
4598;BME280;62772;48.646;8.906;2024-03-23T17:46:48;95831.41;;;2.48;100.00
4598;BME280;62772;48.646;8.906;2024-03-23T17:51:48;95821.13;;;2.47;100.00
4598;BME280;62772;48.646;8.906;2024-03-23T17:56:49;95803.50;;;2.32;100.00
4598;BME280;62772;48.646;8.906;2024-03-23T18:01:49;95813.75;;;2.39;100.00
4598;BME280;62772;48.646;8.906;2024-03-23T18:06:50;95807.72;;;2.33;100.00
4598;BME280;62772;48.646;8.906;2024-03-23T18:11:51;95800.97;;;2.71;100.00
4598;BME280;62772;48.646;8.906;2024-03-23T18:16:53;95804.03;;;2.29;100.00
4598;BME280;62772;48.646;8.906;2024-03-23T18:21:53;95792.94;;;2.42;100.00
4598;BME280;62772;48.646;8.906;2024-03-23T18:26:54;95805.88;;;2.33;100.00
4598;BME280;62772;48.646;8.906;2024-03-23T18:31:55;95817.69;;;2.51;100.00
4598;BME280;62772;48.646;8.906;2024-03-23T18:36:56;95799.31;;;2.31;100.00
4598;BME280;62772;48.646;8.906;2024-03-23T18:41:58;95784.16;;;2.57;100.00
4598;BME280;62772;48.646;8.906;2024-03-23T18:46:59;95780.47;;;2.58;100.00
4598;BME280;62772;48.646;8.906;2024-03-23T18:52:00;95760.38;;;2.72;100.00
4598;BME280;62772;48.646;8.906;2024-03-23T18:57:00;95768.75;;;2.80;100.00
4598;BME280;62772;48.646;8.906;2024-03-23T19:02:01;95775.38;;;2.72;100.00
4598;BME280;62772;48.646;8.906;2024-03-23T19:07:02;95782.06;;;2.54;100.00
4598;BME280;62772;48.646;8.906;2024-03-23T19:12:03;95785.47;;;2.60;100.00
4598;BME280;62772;48.646;8.906;2024-03-23T19:17:04;95784.13;;;2.67;100.00
4598;BME280;62772;48.646;8.906;2024-03-23T19:22:04;95792.19;;;2.31;100.00
4598;BME280;62772;48.646;8.906;2024-03-23T19:27:05;95793.72;;;2.43;100.00
4598;BME280;62772;48.646;8.906;2024-03-23T19:32:06;95795.13;;;2.14;100.00
4598;BME280;62772;48.646;8.906;2024-03-23T19:37:07;95788.75;;;2.36;100.00
4598;BME280;62772;48.646;8.906;2024-03-23T19:42:07;95782.47;;;2.22;100.00
4598;BME280;62772;48.646;8.906;2024-03-23T19:47:08;95763.53;;;2.20;100.00
4598;BME280;62772;48.646;8.906;2024-03-23T19:52:09;95755.28;;;2.31;100.00
4598;BME280;62772;48.646;8.906;2024-03-23T19:57:09;95761.47;;;2.01;100.00
4598;BME280;62772;48.646;8.906;2024-03-23T20:02:10;95765.94;;;2.06;100.00
4598;BME280;62772;48.646;8.906;2024-03-23T20:07:10;95754.31;;;2.12;100.00
4598;BME280;62772;48.646;8.906;2024-03-23T20:12:12;95761.41;;;2.22;100.00
4598;BME280;62772;48.646;8.906;2024-03-23T20:17:12;95777.03;;;1.97;100.00
4598;BME280;62772;48.646;8.906;2024-03-23T20:22:13;95764.84;;;2.17;100.00
4598;BME280;62772;48.646;8.906;2024-03-23T20:27:13;95773.88;;;1.85;100.00
4598;BME280;62772;48.646;8.906;2024-03-23T20:32:15;95769.59;;;2.10;100.00
4598;BME280;62772;48.646;8.906;2024-03-23T20:37:17;95778.22;;;2.31;100.00
4598;BME280;62772;48.646;8.906;2024-03-23T20:42:17;95782.50;;;2.06;100.00
4598;BME280;62772;48.646;8.906;2024-03-23T20:47:18;95775.59;;;2.26;100.00
4598;BME280;62772;48.646;8.906;2024-03-23T20:52:18;95790.19;;;1.92;100.00
4598;BME280;62772;48.646;8.906;2024-03-23T20:57:19;95784.56;;;2.25;100.00
4598;BME280;62772;48.646;8.906;2024-03-23T21:02:19;95785.63;;;2.24;100.00
4598;BME280;62772;48.646;8.906;2024-03-23T21:07:20;95772.16;;;2.35;100.00
4598;BME280;62772;48.646;8.906;2024-03-23T21:12:21;95769.81;;;2.24;100.00
4598;BME280;62772;48.646;8.906;2024-03-23T21:17:21;95767.69;;;2.26;100.00
4598;BME280;62772;48.646;8.906;2024-03-23T21:22:22;95759.78;;;2.26;100.00
4598;BME280;62772;48.646;8.906;2024-03-23T21:27:22;95766.97;;;2.10;100.00
4598;BME280;62772;48.646;8.906;2024-03-23T21:32:23;95775.38;;;2.17;100.00
4598;BME280;62772;48.646;8.906;2024-03-23T21:37:25;95765.50;;;2.48;100.00
4598;BME280;62772;48.646;8.906;2024-03-23T21:42:25;95763.16;;;2.47;100.00
4598;BME280;62772;48.646;8.906;2024-03-23T21:47:26;95743.72;;;2.32;100.00
4598;BME280;62772;48.646;8.906;2024-03-23T21:52:26;95746.34;;;2.32;100.00
4598;BME280;62772;48.646;8.906;2024-03-23T21:57:27;95744.81;;;2.16;100.00
4598;BME280;62772;48.646;8.906;2024-03-23T22:02:28;95736.00;;;2.41;100.00
4598;BME280;62772;48.646;8.906;2024-03-23T22:07:29;95717.09;;;2.29;100.00
4598;BME280;62772;48.646;8.906;2024-03-23T22:12:30;95709.75;;;2.21;100.00
4598;BME280;62772;48.646;8.906;2024-03-23T22:17:31;95696.00;;;2.29;100.00
4598;BME280;62772;48.646;8.906;2024-03-23T22:22:31;95700.31;;;2.09;100.00
4598;BME280;62772;48.646;8.906;2024-03-23T22:27:32;95703.53;;;2.01;100.00
4598;BME280;62772;48.646;8.906;2024-03-23T22:32:33;95693.72;;;2.17;100.00
4598;BME280;62772;48.646;8.906;2024-03-23T22:37:33;95681.28;;;2.23;100.00
4598;BME280;62772;48.646;8.906;2024-03-23T22:42:34;95680.13;;;1.89;100.00
4598;BME280;62772;48.646;8.906;2024-03-23T22:47:34;95672.13;;;2.15;100.00
4598;BME280;62772;48.646;8.906;2024-03-23T22:52:36;95664.81;;;1.96;100.00
4598;BME280;62772;48.646;8.906;2024-03-23T22:57:37;95652.91;;;2.09;100.00
4598;BME280;62772;48.646;8.906;2024-03-23T23:02:37;95645.50;;;2.16;100.00
4598;BME280;62772;48.646;8.906;2024-03-23T23:07:38;95651.88;;;2.05;100.00
4598;BME280;62772;48.646;8.906;2024-03-23T23:12:38;95637.34;;;2.13;100.00
4598;BME280;62772;48.646;8.906;2024-03-23T23:17:39;95626.81;;;2.13;100.00
4598;BME280;62772;48.646;8.906;2024-03-23T23:22:39;95624.88;;;2.29;100.00
4598;BME280;62772;48.646;8.906;2024-03-23T23:27:40;95617.00;;;2.24;100.00
4598;BME280;62772;48.646;8.906;2024-03-23T23:32:41;95610.38;;;2.31;100.00
4598;BME280;62772;48.646;8.906;2024-03-23T23:37:42;95603.91;;;2.13;100.00
4598;BME280;62772;48.646;8.906;2024-03-23T23:42:42;95594.06;;;2.24;100.00
4598;BME280;62772;48.646;8.906;2024-03-23T23:47:43;95592.13;;;1.95;100.00
4598;BME280;62772;48.646;8.906;2024-03-23T23:52:43;95589.13;;;2.17;100.00
4598;BME280;62772;48.646;8.906;2024-03-23T23:57:43;95571.97;;;2.20;100.00
